Time;durP1;ratioP1;P1;durP2;ratioP2;P2;SDS_P1;SDS_P2;PMS_P1;PMS_P2;Temp;Humidity;BMP_temperature;BMP_pressure;BME280_temperature;BME280_humidity;BME280_pressure;Samples;Min_cycle;Max_cycle;Signal;HPM_P1;HPM_P2
2024/01/19 00:02:06;;;;;;;64.97;28.23;;;;;;;;;;10120553;29;20120;-81
2024/01/19 00:07:07;;;;;;;70.67;28.90;;;;;;;;;;10108301;29;20040;-82
2024/01/19 00:12:08;;;;;;;62.63;26.80;;;;;;;;;;10113148;29;20053;-81
2024/01/19 00:17:10;;;;;;;59.47;26.37;;;;;;;;;;10116856;29;20031;-82
2024/01/19 00:22:11;;;;;;;63.00;27.73;;;;;;;;;;10114703;29;20385;-81
2024/01/19 00:27:12;;;;;;;72.00;29.63;;;;;;;;;;10121036;29;20441;-81
2024/01/19 00:32:13;;;;;;;65.60;27.20;;;;;;;;;;10122508;29;20147;-82
2024/01/19 00:37:15;;;;;;;59.37;26.13;;;;;;;;;;10101623;29;20159;-83
2024/01/19 00:42:16;;;;;;;59.80;25.00;;;;;;;;;;10119505;29;20481;-81
2024/01/19 00:47:17;;;;;;;60.37;25.43;;;;;;;;;;10116275;29;20048;-82
2024/01/19 00:52:18;;;;;;;52.87;23.80;;;;;;;;;;10096928;29;20457;-80
2024/01/19 00:57:19;;;;;;;59.20;24.57;;;;;;;;;;10115011;29;20148;-82
2024/01/19 01:02:20;;;;;;;50.23;22.23;;;;;;;;;;10109649;29;20123;-83
2024/01/19 01:07:21;;;;;;;58.73;24.50;;;;;;;;;;10115691;29;20092;-82
2024/01/19 01:12:22;;;;;;;52.87;22.50;;;;;;;;;;10114435;29;20124;-84
2024/01/19 01:17:23;;;;;;;55.13;20.43;;;;;;;;;;10103780;29;20123;-82
2024/01/19 01:22:26;;;;;;;45.80;20.23;;;;;;;;;;10121906;29;20127;-82
2024/01/19 01:27:27;;;;;;;48.43;20.47;;;;;;;;;;10121523;29;20564;-81
2024/01/19 01:32:28;;;;;;;45.53;20.03;;;;;;;;;;10113282;29;20049;-84
2024/01/19 01:37:36;;;;;;;44.00;18.20;;;;;;;;;;10119368;29;20107;-81
2024/01/19 01:42:37;;;;;;;38.50;17.50;;;;;;;;;;10112302;29;20124;-81
2024/01/19 01:47:38;;;;;;;34.50;14.23;;;;;;;;;;10115416;29;20131;-82
2024/01/19 01:52:39;;;;;;;39.00;17.00;;;;;;;;;;10104371;29;20048;-82
2024/01/19 01:57:42;;;;;;;38.90;16.27;;;;;;;;;;10120740;29;20033;-82
2024/01/19 02:02:43;;;;;;;40.73;19.13;;;;;;;;;;10119460;29;20647;-81
2024/01/19 02:07:44;;;;;;;38.90;17.23;;;;;;;;;;10103906;29;20560;-81
2024/01/19 02:12:45;;;;;;;39.37;17.43;;;;;;;;;;10120359;29;20128;-81
2024/01/19 02:17:47;;;;;;;30.03;12.50;;;;;;;;;;10110918;29;20039;-82
2024/01/19 02:22:49;;;;;;;31.63;12.60;;;;;;;;;;10119768;29;20389;-83
2024/01/19 02:27:50;;;;;;;30.40;14.13;;;;;;;;;;10108883;29;20041;-81
2024/01/19 02:32:52;;;;;;;28.50;11.97;;;;;;;;;;10116412;29;20056;-81
2024/01/19 02:37:53;;;;;;;37.90;15.23;;;;;;;;;;10108496;29;20076;-81
2024/01/19 02:43:01;;;;;;;34.70;12.83;;;;;;;;;;10114556;29;20033;-82
2024/01/19 02:48:02;;;;;;;30.13;13.17;;;;;;;;;;10108323;29;20423;-81
2024/01/19 02:53:03;;;;;;;32.43;12.60;;;;;;;;;;10121003;29;20036;-81
2024/01/19 02:58:04;;;;;;;36.63;13.33;;;;;;;;;;10119783;29;20044;-82
2024/01/19 03:03:05;;;;;;;30.57;13.77;;;;;;;;;;10119351;29;20028;-81
2024/01/19 03:08:13;;;;;;;27.60;12.20;;;;;;;;;;10114500;29;20056;-82
2024/01/19 03:13:14;;;;;;;32.67;12.27;;;;;;;;;;10116531;29;20037;-83
2024/01/19 03:18:15;;;;;;;34.47;12.43;;;;;;;;;;10122399;29;20068;-82
2024/01/19 03:23:17;;;;;;;26.97;12.17;;;;;;;;;;10127217;29;20039;-81
2024/01/19 03:28:18;;;;;;;28.27;12.37;;;;;;;;;;10124850;29;20127;-81
2024/01/19 03:33:19;;;;;;;31.57;12.67;;;;;;;;;;10112633;29;20148;-81
2024/01/19 03:38:20;;;;;;;25.00;12.23;;;;;;;;;;10111041;29;20159;-82
2024/01/19 03:43:21;;;;;;;31.50;13.40;;;;;;;;;;10126239;29;20100;-82
2024/01/19 03:48:22;;;;;;;29.17;12.80;;;;;;;;;;10118182;29;20045;-82
2024/01/19 03:53:23;;;;;;;27.70;11.97;;;;;;;;;;10125020;29;20172;-80
2024/01/19 03:58:24;;;;;;;24.70;11.93;;;;;;;;;;10124346;29;20032;-81
2024/01/19 04:03:25;;;;;;;27.63;12.67;;;;;;;;;;10123337;29;20069;-83
2024/01/19 04:08:27;;;;;;;22.13;10.50;;;;;;;;;;10117543;29;20534;-82
2024/01/19 04:13:35;;;;;;;24.53;11.03;;;;;;;;;;10115151;29;20044;-82
2024/01/19 04:18:36;;;;;;;23.83;11.37;;;;;;;;;;10108398;29;20064;-81
2024/01/19 04:23:37;;;;;;;26.80;10.23;;;;;;;;;;10105217;29;20147;-81
2024/01/19 04:28:39;;;;;;;20.77;10.20;;;;;;;;;;10122079;29;20037;-83
2024/01/19 04:33:40;;;;;;;19.53;8.07;;;;;;;;;;10123881;29;20151;-82
2024/01/19 04:38:41;;;;;;;17.33;8.03;;;;;;;;;;10122519;29;20537;-82
2024/01/19 04:43:43;;;;;;;22.80;9.43;;;;;;;;;;10123628;29;20036;-79
2024/01/19 04:48:44;;;;;;;22.70;9.97;;;;;;;;;;10119199;29;20051;-81
2024/01/19 04:53:45;;;;;;;18.50;9.10;;;;;;;;;;10101166;29;20040;-79
2024/01/19 04:58:46;;;;;;;21.07;8.43;;;;;;;;;;10110385;29;20045;-79
2024/01/19 05:03:54;;;;;;;24.53;9.30;;;;;;;;;;10121735;29;20036;-80
2024/01/19 05:08:55;;;;;;;18.20;8.03;;;;;;;;;;10122082;29;20052;-81
2024/01/19 05:13:56;;;;;;;15.83;6.93;;;;;;;;;;10117335;29;20123;-80
2024/01/19 05:18:57;;;;;;;17.50;7.07;;;;;;;;;;10115357;29;20028;-81
2024/01/19 05:23:58;;;;;;;16.80;6.87;;;;;;;;;;10113614;29;20667;-81
2024/01/19 05:28:59;;;;;;;17.37;7.00;;;;;;;;;;10121229;29;20073;-79
2024/01/19 05:34:00;;;;;;;18.67;7.57;;;;;;;;;;10121856;29;20152;-80
2024/01/19 05:39:01;;;;;;;16.17;7.53;;;;;;;;;;10121504;29;20124;-81
2024/01/19 05:44:02;;;;;;;14.60;7.43;;;;;;;;;;10121056;29;20482;-81
2024/01/19 05:49:04;;;;;;;23.30;8.97;;;;;;;;;;10120623;29;20071;-79
2024/01/19 05:54:05;;;;;;;18.60;7.30;;;;;;;;;;10121470;29;20392;-80
2024/01/19 05:59:06;;;;;;;19.23;8.80;;;;;;;;;;10116018;29;20072;-81
2024/01/19 06:04:07;;;;;;;18.03;8.00;;;;;;;;;;10121197;29;20036;-80
2024/01/19 06:09:08;;;;;;;18.00;8.47;;;;;;;;;;10121344;29;20432;-80
2024/01/19 06:14:09;;;;;;;17.83;8.13;;;;;;;;;;10119608;29;20037;-81
2024/01/19 06:19:10;;;;;;;23.70;10.40;;;;;;;;;;10108600;29;20272;-81
2024/01/19 06:24:15;;;;;;;19.50;9.23;;;;;;;;;;10111962;29;20064;-81
2024/01/19 06:29:16;;;;;;;21.40;9.90;;;;;;;;;;10121138;29;20052;-80
2024/01/19 06:34:18;;;;;;;23.80;9.40;;;;;;;;;;10119947;29;20071;-80
2024/01/19 06:39:19;;;;;;;20.63;9.60;;;;;;;;;;10120626;29;20466;-82
2024/01/19 06:44:20;;;;;;;24.63;11.63;;;;;;;;;;10107690;29;20029;-80
2024/01/19 06:49:21;;;;;;;23.30;10.13;;;;;;;;;;10120389;29;20085;-81
2024/01/19 06:54:22;;;;;;;30.37;12.47;;;;;;;;;;10125720;29;20044;-81
2024/01/19 06:59:23;;;;;;;30.27;12.73;;;;;;;;;;10127841;29;20032;-80
2024/01/19 07:04:24;;;;;;;25.43;10.43;;;;;;;;;;10127481;29;20402;-81
2024/01/19 07:09:29;;;;;;;33.43;11.90;;;;;;;;;;10127316;29;20552;-83
2024/01/19 07:14:30;;;;;;;27.03;11.57;;;;;;;;;;10126372;29;20024;-82
2024/01/19 07:19:31;;;;;;;28.93;12.10;;;;;;;;;;10099248;29;20669;-80
2024/01/19 07:24:35;;;;;;;26.27;12.40;;;;;;;;;;10108818;29;20041;-81
2024/01/19 07:29:36;;;;;;;36.13;18.43;;;;;;;;;;10123088;29;20162;-81
2024/01/19 07:34:37;;;;;;;33.60;15.17;;;;;;;;;;10126349;29;20057;-81
2024/01/19 07:39:38;;;;;;;32.80;13.30;;;;;;;;;;10126257;29;20796;-80
2024/01/19 07:44:39;;;;;;;28.30;12.80;;;;;;;;;;10125998;29;20093;-80
2024/01/19 07:49:40;;;;;;;25.83;13.07;;;;;;;;;;10125779;29;20084;-83
2024/01/19 07:54:41;;;;;;;26.93;12.87;;;;;;;;;;10126263;29;20043;-81
2024/01/19 07:59:43;;;;;;;27.90;12.73;;;;;;;;;;10125547;29;20398;-80
2024/01/19 08:04:44;;;;;;;26.13;11.60;;;;;;;;;;10117027;29;20045;-82
2024/01/19 08:09:45;;;;;;;26.73;11.50;;;;;;;;;;10120483;29;20084;-80
2024/01/19 08:14:47;;;;;;;30.77;12.60;;;;;;;;;;10123450;29;20135;-80
2024/01/19 08:19:48;;;;;;;28.83;12.93;;;;;;;;;;10124934;29;20036;-78
2024/01/19 08:24:49;;;;;;;25.60;11.77;;;;;;;;;;10123281;29;20115;-81
2024/01/19 08:29:50;;;;;;;34.73;17.03;;;;;;;;;;10114995;29;20255;-80
2024/01/19 08:34:57;;;;;;;57.40;23.47;;;;;;;;;;10123276;29;20515;-80
2024/01/19 08:39:58;;;;;;;66.00;28.77;;;;;;;;;;10123314;29;20036;-79
2024/01/19 08:44:59;;;;;;;49.73;20.83;;;;;;;;;;10124530;29;20556;-80
2024/01/19 08:50:02;;;;;;;28.80;13.27;;;;;;;;;;10123346;29;20033;-80
2024/01/19 08:55:03;;;;;;;41.43;16.77;;;;;;;;;;10121783;29;20029;-80
2024/01/19 09:00:04;;;;;;;32.63;15.03;;;;;;;;;;10119219;29;20408;-80
2024/01/19 09:05:06;;;;;;;66.83;27.50;;;;;;;;;;10117455;29;20530;-80
2024/01/19 09:10:07;;;;;;;50.23;21.23;;;;;;;;;;10123204;29;20124;-82
2024/01/19 09:15:08;;;;;;;51.83;22.80;;;;;;;;;;10121916;29;20063;-81
2024/01/19 09:20:10;;;;;;;56.43;24.33;;;;;;;;;;10119514;29;20046;-80
2024/01/19 09:25:15;;;;;;;38.53;17.27;;;;;;;;;;10119605;29;20047;-79
2024/01/19 09:30:18;;;;;;;39.28;16.95;;;;;;;;;;10120545;29;20882;-81
2024/01/19 09:35:19;;;;;;;46.67;19.43;;;;;;;;;;10114219;29;20068;-79
2024/01/19 09:40:21;;;;;;;48.20;20.17;;;;;;;;;;10121880;29;20036;-80
2024/01/19 09:45:40;;;;;;;39.50;17.07;;;;;;;;;;10122196;29;20135;-80
2024/01/19 09:50:42;;;;;;;39.30;17.43;;;;;;;;;;10121946;29;20075;-82
2024/01/19 09:55:47;;;;;;;35.87;15.50;;;;;;;;;;10112990;29;20029;-81
2024/01/19 10:00:50;;;;;;;33.63;16.20;;;;;;;;;;10120825;29;20031;-80
2024/01/19 10:05:53;;;;;;;31.53;15.27;;;;;;;;;;10104362;29;20043;-79
2024/01/19 10:10:56;;;;;;;53.77;23.30;;;;;;;;;;10121391;29;20044;-80
2024/01/19 10:16:03;;;;;;;35.93;16.53;;;;;;;;;;10121932;29;20604;-81
2024/01/19 10:21:05;;;;;;;35.10;16.57;;;;;;;;;;10121370;29;20079;-81
2024/01/19 10:26:14;;;;;;;37.13;16.47;;;;;;;;;;10122216;29;20036;-81
2024/01/19 10:31:26;;;;;;;33.37;15.17;;;;;;;;;;10129311;29;20043;-82
2024/01/19 10:36:27;;;;;;;42.27;17.97;;;;;;;;;;10110981;29;20056;-81
2024/01/19 10:41:28;;;;;;;39.17;18.17;;;;;;;;;;10129439;29;20048;-79
2024/01/19 10:46:29;;;;;;;43.20;18.50;;;;;;;;;;10112506;29;20214;-81
2024/01/19 10:51:32;;;;;;;47.00;21.13;;;;;;;;;;10127887;29;20040;-80
2024/01/19 10:56:34;;;;;;;48.97;22.20;;;;;;;;;;10128605;29;20035;-81
2024/01/19 11:01:35;;;;;;;67.10;26.20;;;;;;;;;;10126931;29;20532;-81
2024/01/19 11:06:37;;;;;;;45.20;18.70;;;;;;;;;;10123998;29;20044;-80
2024/01/19 11:11:47;;;;;;;46.13;18.30;;;;;;;;;;10125336;29;20047;-81
2024/01/19 11:16:49;;;;;;;35.93;17.53;;;;;;;;;;10120113;29;20119;-79
2024/01/19 11:21:50;;;;;;;38.27;17.57;;;;;;;;;;10126362;29;20060;-79
2024/01/19 11:27:12;;;;;;;40.63;19.50;;;;;;;;;;10126746;29;20115;-79
2024/01/19 11:32:14;;;;;;;46.50;20.00;;;;;;;;;;10126421;29;20480;-79
2024/01/19 11:37:34;;;;;;;41.50;17.73;;;;;;;;;;10123331;29;20127;-79
2024/01/19 11:42:35;;;;;;;45.10;19.03;;;;;;;;;;10122746;29;20049;-79
2024/01/19 11:47:36;;;;;;;41.80;19.07;;;;;;;;;;10119912;29;20124;-80
2024/01/19 11:52:41;;;;;;;43.37;19.13;;;;;;;;;;10126212;29;20036;-79
2024/01/19 11:57:42;;;;;;;42.60;17.27;;;;;;;;;;10107849;29;20079;-79
2024/01/19 12:02:44;;;;;;;42.73;17.83;;;;;;;;;;10119653;29;20029;-82
2024/01/19 12:07:45;;;;;;;43.47;18.73;;;;;;;;;;10123739;29;20038;-79
2024/01/19 12:12:49;;;;;;;47.67;19.80;;;;;;;;;;10125769;29;20135;-79
2024/01/19 12:17:56;;;;;;;37.20;17.13;;;;;;;;;;10107590;29;20497;-82
2024/01/19 12:22:58;;;;;;;46.23;20.07;;;;;;;;;;10123814;29;20119;-79
2024/01/19 12:28:03;;;;;;;52.60;22.07;;;;;;;;;;10122297;29;20100;-80
2024/01/19 12:33:17;;;;;;;48.80;21.70;;;;;;;;;;10123460;29;20044;-79
2024/01/19 12:38:18;;;;;;;49.97;23.53;;;;;;;;;;10085549;29;20082;-80
2024/01/19 12:43:19;;;;;;;47.70;24.07;;;;;;;;;;10086519;29;20108;-78
2024/01/19 12:48:21;;;;;;;58.27;22.53;;;;;;;;;;10084848;29;20124;-79
2024/01/19 12:53:22;;;;;;;56.23;24.33;;;;;;;;;;10085040;29;20035;-79
2024/01/19 12:58:23;;;;;;;50.57;22.50;;;;;;;;;;10084637;29;20123;-80
2024/01/19 13:03:24;;;;;;;45.07;20.20;;;;;;;;;;10084769;29;20049;-79
2024/01/19 13:08:25;;;;;;;47.47;19.67;;;;;;;;;;10064914;29;20390;-80
2024/01/19 13:13:27;;;;;;;48.13;21.37;;;;;;;;;;10084048;29;20040;-80
2024/01/19 13:18:28;;;;;;;48.50;21.17;;;;;;;;;;10083139;29;20025;-79
2024/01/19 13:23:29;;;;;;;49.87;21.47;;;;;;;;;;10083832;29;20032;-84
2024/01/19 13:28:30;;;;;;;57.13;24.07;;;;;;;;;;10083717;29;20622;-79
2024/01/19 13:33:31;;;;;;;58.07;26.70;;;;;;;;;;10084594;29;20048;-80
2024/01/19 13:38:32;;;;;;;50.07;20.13;;;;;;;;;;10115161;29;20132;-80
2024/01/19 13:43:34;;;;;;;48.67;20.63;;;;;;;;;;10120528;29;20056;-80
2024/01/19 13:48:36;;;;;;;43.20;19.37;;;;;;;;;;10119572;29;20033;-80
2024/01/19 13:53:45;;;;;;;49.70;19.20;;;;;;;;;;10119866;29;20040;-80
2024/01/19 13:58:46;;;;;;;46.07;21.30;;;;;;;;;;10121216;29;20359;-80
2024/01/19 14:03:49;;;;;;;63.10;28.10;;;;;;;;;;10120639;29;20025;-80
2024/01/19 14:08:52;;;;;;;60.57;24.83;;;;;;;;;;10111519;29;20050;-81
2024/01/19 14:13:54;;;;;;;51.53;22.90;;;;;;;;;;10120997;29;20060;-80
2024/01/19 14:18:55;;;;;;;62.33;25.90;;;;;;;;;;10120313;29;20068;-83
2024/01/19 14:23:56;;;;;;;65.03;28.40;;;;;;;;;;10119530;29;20032;-80
2024/01/19 14:28:57;;;;;;;66.37;29.63;;;;;;;;;;10119107;29;20047;-80
2024/01/19 14:33:58;;;;;;;59.93;24.43;;;;;;;;;;10119755;29;20127;-81
2024/01/19 14:38:59;;;;;;;53.57;23.47;;;;;;;;;;10111849;29;20083;-80
2024/01/19 14:44:00;;;;;;;60.00;24.00;;;;;;;;;;10115351;29;20040;-80
2024/01/19 14:49:05;;;;;;;59.20;25.77;;;;;;;;;;10119701;29;20107;-81
2024/01/19 14:54:14;;;;;;;56.90;26.60;;;;;;;;;;10103614;29;20072;-80
2024/01/19 14:59:15;;;;;;;96.33;41.00;;;;;;;;;;10119746;29;20039;-81
2024/01/19 15:04:16;;;;;;;110.97;47.07;;;;;;;;;;10106563;29;20049;-81
2024/01/19 15:09:17;;;;;;;118.77;49.23;;;;;;;;;;10113133;29;20132;-79
2024/01/19 15:14:18;;;;;;;112.77;51.17;;;;;;;;;;10121180;29;20115;-80
2024/01/19 15:19:19;;;;;;;160.80;75.17;;;;;;;;;;10125526;29;20733;-81
2024/01/19 15:24:20;;;;;;;256.03;107.37;;;;;;;;;;10125545;29;20124;-79
2024/01/19 15:29:21;;;;;;;209.50;95.90;;;;;;;;;;10125776;29;20082;-80
2024/01/19 15:34:24;;;;;;;146.90;65.50;;;;;;;;;;10125862;29;20060;-81
2024/01/19 15:39:25;;;;;;;173.00;72.43;;;;;;;;;;10123568;29;20389;-79
2024/01/19 15:44:33;;;;;;;143.93;60.87;;;;;;;;;;10127001;29;20045;-79
2024/01/19 15:49:37;;;;;;;152.07;59.33;;;;;;;;;;10108635;29;20639;-79
2024/01/19 15:54:41;;;;;;;135.87;56.77;;;;;;;;;;10122826;29;20040;-80
2024/01/19 15:59:46;;;;;;;139.10;59.33;;;;;;;;;;10118113;29;20040;-79
2024/01/19 16:04:47;;;;;;;182.17;77.30;;;;;;;;;;10125775;29;20033;-80
2024/01/19 16:09:48;;;;;;;178.77;78.43;;;;;;;;;;10119397;29;20504;-81
2024/01/19 16:14:51;;;;;;;165.67;69.77;;;;;;;;;;10121142;29;20135;-80
2024/01/19 16:19:52;;;;;;;165.63;71.57;;;;;;;;;;10120468;29;20703;-80
2024/01/19 16:24:53;;;;;;;142.33;62.57;;;;;;;;;;10116255;29;20040;-81
2024/01/19 16:29:54;;;;;;;149.97;68.30;;;;;;;;;;10121399;29;20043;-80
2024/01/19 16:34:55;;;;;;;166.40;76.63;;;;;;;;;;10111749;29;20750;-79
2024/01/19 16:39:56;;;;;;;164.00;75.90;;;;;;;;;;10091409;29;20067;-80
2024/01/19 16:45:04;;;;;;;140.17;67.43;;;;;;;;;;10120270;29;20689;-80
2024/01/19 16:50:05;;;;;;;144.17;70.20;;;;;;;;;;10121517;29;20049;-79
2024/01/19 16:55:07;;;;;;;171.80;80.30;;;;;;;;;;10101416;29;20560;-80
2024/01/19 17:00:08;;;;;;;152.80;69.40;;;;;;;;;;10124086;29;20036;-80
2024/01/19 17:05:09;;;;;;;139.40;61.97;;;;;;;;;;10116935;29;20067;-80
2024/01/19 17:10:10;;;;;;;129.13;59.43;;;;;;;;;;10112470;29;20083;-81
2024/01/19 17:15:12;;;;;;;176.03;72.83;;;;;;;;;;10112663;29;20080;-79
2024/01/19 17:20:13;;;;;;;119.17;54.63;;;;;;;;;;10116296;29;20120;-79
2024/01/19 17:25:14;;;;;;;103.13;50.43;;;;;;;;;;10121346;29;20051;-81
2024/01/19 17:30:19;;;;;;;115.90;55.07;;;;;;;;;;10105474;29;20687;-79
2024/01/19 17:35:23;;;;;;;119.00;54.23;;;;;;;;;;10111348;29;20866;-80
2024/01/19 17:40:24;;;;;;;105.57;47.97;;;;;;;;;;10119134;29;20070;-80
2024/01/19 17:45:25;;;;;;;129.07;53.80;;;;;;;;;;10116651;29;20120;-80
2024/01/19 17:50:26;;;;;;;113.03;48.27;;;;;;;;;;10102007;29;20097;-79
2024/01/19 17:55:27;;;;;;;135.50;59.57;;;;;;;;;;10114349;29;20042;-80
2024/01/19 18:00:28;;;;;;;111.20;48.90;;;;;;;;;;10121034;29;20035;-80
2024/01/19 18:05:29;;;;;;;138.20;55.70;;;;;;;;;;10113077;29;20424;-79
2024/01/19 18:10:30;;;;;;;177.73;73.07;;;;;;;;;;10122975;29;20127;-80
2024/01/19 18:15:32;;;;;;;136.87;55.07;;;;;;;;;;10107857;29;20354;-80
2024/01/19 18:20:33;;;;;;;118.83;48.50;;;;;;;;;;10117575;29;20032;-82
2024/01/19 18:25:34;;;;;;;113.17;49.77;;;;;;;;;;10118767;29;20028;-80
2024/01/19 18:30:35;;;;;;;112.10;49.90;;;;;;;;;;10120534;29;20040;-80
2024/01/19 18:35:38;;;;;;;96.40;39.97;;;;;;;;;;10116524;29;20471;-81
2024/01/19 18:40:39;;;;;;;149.67;58.10;;;;;;;;;;10119940;29;20547;-80
2024/01/19 18:45:40;;;;;;;180.83;68.43;;;;;;;;;;10118068;29;20442;-81
2024/01/19 18:50:41;;;;;;;127.43;53.33;;;;;;;;;;10120150;29;20055;-80
2024/01/19 18:55:42;;;;;;;126.30;55.47;;;;;;;;;;10127550;29;20669;-80
2024/01/19 19:00:43;;;;;;;139.13;54.67;;;;;;;;;;10125703;29;20039;-81
2024/01/19 19:05:44;;;;;;;93.60;41.50;;;;;;;;;;10125239;29;20610;-80
2024/01/19 19:10:45;;;;;;;131.47;51.00;;;;;;;;;;10115824;29;20532;-80
2024/01/19 19:15:46;;;;;;;104.90;42.40;;;;;;;;;;10117451;29;20454;-80
2024/01/19 19:20:47;;;;;;;103.23;43.30;;;;;;;;;;10114986;29;20100;-79
2024/01/19 19:25:48;;;;;;;107.93;44.17;;;;;;;;;;10123416;29;20509;-80
2024/01/19 19:30:49;;;;;;;95.20;40.07;;;;;;;;;;10119049;29;20041;-79
2024/01/19 19:35:57;;;;;;;96.70;42.60;;;;;;;;;;10114251;29;20061;-79
2024/01/19 19:41:03;;;;;;;122.37;46.63;;;;;;;;;;10126193;29;20493;-80
2024/01/19 19:46:04;;;;;;;116.03;44.97;;;;;;;;;;10120253;29;20437;-79
2024/01/19 19:51:05;;;;;;;119.33;45.10;;;;;;;;;;10120287;29;20072;-81
2024/01/19 19:56:07;;;;;;;67.93;26.83;;;;;;;;;;10119192;29;20047;-80
2024/01/19 20:01:10;;;;;;;69.50;29.53;;;;;;;;;;10106322;29;20547;-81
2024/01/19 20:06:11;;;;;;;92.53;38.93;;;;;;;;;;10099321;29;20046;-81
2024/01/19 20:11:12;;;;;;;126.07;45.07;;;;;;;;;;10113689;29;20127;-81
2024/01/19 20:16:14;;;;;;;117.77;45.93;;;;;;;;;;10113479;29;20127;-80
2024/01/19 20:21:15;;;;;;;84.23;33.97;;;;;;;;;;10117606;29;20123;-79
2024/01/19 20:26:16;;;;;;;72.97;29.77;;;;;;;;;;10122208;29;20124;-81
2024/01/19 20:31:19;;;;;;;79.57;33.30;;;;;;;;;;10117801;29;20047;-82
2024/01/19 20:36:20;;;;;;;87.03;32.60;;;;;;;;;;10097177;29;20060;-81
2024/01/19 20:41:21;;;;;;;79.57;30.67;;;;;;;;;;10073599;29;20049;-81
2024/01/19 20:46:22;;;;;;;67.30;27.30;;;;;;;;;;10081583;29;20095;-82
2024/01/19 20:51:23;;;;;;;70.17;29.97;;;;;;;;;;10083660;29;20072;-79
2024/01/19 20:56:31;;;;;;;76.63;31.93;;;;;;;;;;10082588;29;20126;-81
2024/01/19 21:01:32;;;;;;;76.73;31.60;;;;;;;;;;10075256;29;20177;-80
2024/01/19 21:06:33;;;;;;;65.50;28.60;;;;;;;;;;10084482;29;20196;-79
2024/01/19 21:11:34;;;;;;;71.03;28.67;;;;;;;;;;10081185;29;20121;-81
2024/01/19 21:16:35;;;;;;;59.63;24.67;;;;;;;;;;10084682;29;20569;-80
2024/01/19 21:21:36;;;;;;;56.57;24.50;;;;;;;;;;10084279;29;20051;-82
2024/01/19 21:26:38;;;;;;;57.97;24.50;;;;;;;;;;10080077;29;20041;-80
2024/01/19 21:31:43;;;;;;;62.80;25.13;;;;;;;;;;10076182;29;20674;-80
2024/01/19 21:36:47;;;;;;;57.08;24.88;;;;;;;;;;10093055;29;20065;-80
2024/01/19 21:41:51;;;;;;;63.80;28.10;;;;;;;;;;10117237;29;20070;-80
2024/01/19 21:46:52;;;;;;;77.60;30.07;;;;;;;;;;10113983;29;20029;-80
2024/01/19 21:51:53;;;;;;;65.33;27.03;;;;;;;;;;10121578;29;20044;-81
2024/01/19 21:56:54;;;;;;;62.20;24.20;;;;;;;;;;10116867;29;20043;-81
2024/01/19 22:01:55;;;;;;;81.67;29.97;;;;;;;;;;10103831;29;20035;-79
2024/01/19 22:06:56;;;;;;;193.03;80.43;;;;;;;;;;10114983;29;20029;-79
2024/01/19 22:11:58;;;;;;;175.87;77.97;;;;;;;;;;10099905;29;20617;-81
2024/01/19 22:16:59;;;;;;;408.17;198.90;;;;;;;;;;10121135;29;20596;-80
2024/01/19 22:22:00;;;;;;;209.73;89.47;;;;;;;;;;10121154;29;20041;-79
2024/01/19 22:27:01;;;;;;;109.60;46.40;;;;;;;;;;10110841;29;20040;-80
2024/01/19 22:32:02;;;;;;;91.63;38.40;;;;;;;;;;10123583;29;20075;-81
2024/01/19 22:37:03;;;;;;;92.40;39.80;;;;;;;;;;10129098;29;20524;-81
2024/01/19 22:42:04;;;;;;;92.97;40.83;;;;;;;;;;10112387;29;20111;-81
2024/01/19 22:47:12;;;;;;;96.60;41.00;;;;;;;;;;10124933;29;20127;-81
2024/01/19 22:52:13;;;;;;;97.50;43.37;;;;;;;;;;10125421;29;20088;-81
2024/01/19 22:57:14;;;;;;;85.63;36.93;;;;;;;;;;10125845;29;20799;-79
2024/01/19 23:02:15;;;;;;;80.00;33.43;;;;;;;;;;10123078;29;20580;-80
2024/01/19 23:07:16;;;;;;;76.87;34.17;;;;;;;;;;10124593;29;20048;-82
2024/01/19 23:12:17;;;;;;;78.50;33.63;;;;;;;;;;10107038;29;20044;-80
2024/01/19 23:17:19;;;;;;;72.90;33.13;;;;;;;;;;10117956;29;20052;-80
2024/01/19 23:22:20;;;;;;;66.97;29.70;;;;;;;;;;10116766;29;20037;-81
2024/01/19 23:27:21;;;;;;;95.83;38.03;;;;;;;;;;10121689;29;20047;-79
2024/01/19 23:32:22;;;;;;;104.73;39.63;;;;;;;;;;10114979;29;20401;-80
2024/01/19 23:37:23;;;;;;;116.33;40.63;;;;;;;;;;10121509;29;20071;-81
2024/01/19 23:42:27;;;;;;;108.33;41.17;;;;;;;;;;10118572;29;20392;-81
2024/01/19 23:47:28;;;;;;;83.67;34.03;;;;;;;;;;10104643;29;20144;-80
2024/01/19 23:52:29;;;;;;;70.10;31.20;;;;;;;;;;10104980;29;20074;-81
2024/01/19 23:57:30;;;;;;;74.60;31.03;;;;;;;;;;10114022;29;20111;-81
